| time (UTC) | temp F | wind direction | speed knots | gust knots | rain 1hr in | rain 24hr in | rain mn in | humidity % | barometer mb |
| 20260906225317 | 101 | 208 | 1.7 | 2.6 | 0.00 | 0.00 | 0.00 | 33 | 1010.8 |
| 20260906224816 | 101 | 7 | 0.9 | 1.7 | 0.00 | 0.00 | 0.00 | 33 | 1010.8 |
| 20260906224250 | 101 | 10 | 0.0 | 0.0 | 0.00 | 0.00 | 0.00 | 33 | 1010.7 |
| 20260906223755 | 101 | 230 | 0.9 | 0.9 | 0.00 | 0.00 | 0.00 | 33 | 1010.7 |
| 20260906223230 | 101 | 253 | 0.0 | 0.0 | 0.00 | 0.00 | 0.00 | 34 | 1010.6 |
| 20260906222721 | 101 | 359 | 0.9 | 0.9 | 0.00 | 0.00 | 0.00 | 34 | 1010.9 |
| 20260906222152 | 101 | 232 | 0.0 | 0.9 | 0.00 | 0.00 | 0.00 | 33 | 1011.0 |
| 20260906221650 | 100 | 8 | 0.9 | 0.9 | 0.00 | 0.00 | 0.00 | 33 | 1010.8 |
| 20260906221148 | 101 | 35 | 1.7 | 2.6 | 0.00 | 0.00 | 0.00 | 33 | 1010.7 |
| 20260906220642 | 100 | 33 | 0.9 | 1.7 | 0.00 | 0.00 | 0.00 | 33 | 1010.8 |
| 20260906220140 | 100 | 141 | 2.6 | 3.5 | 0.00 | 0.00 | 0.00 | 34 | 1010.7 |
| 20260906215540 | 100 | 0 | 0.9 | 0.9 | 0.00 | 0.00 | 0.00 | 35 | 1010.7 |
| 20260906214959 | 101 | 166 | 1.7 | 2.6 | 0.00 | 0.00 | 0.00 | 34 | 1010.9 |
| 20260906214442 | 101 | 298 | 3.5 | 4.3 | 0.00 | 0.00 | 0.00 | 33 | 1010.6 |
| 20260906213955 | 100 | 348 | 0.0 | 0.9 | 0.00 | 0.00 | 0.00 | 34 | 1010.8 |
| 20260906213445 | 100 | 209 | 0.9 | 1.7 | 0.00 | 0.00 | 0.00 | 34 | 1010.7 |
| 20260906212855 | 100 | 279 | 0.0 | 0.9 | 0.00 | 0.00 | 0.00 | 34 | 1010.9 |
| 20260906212312 | 101 | 343 | 0.9 | 1.7 | 0.00 | 0.00 | 0.00 | 34 | 1010.9 |
| 20260906211810 | 100 | 30 | 0.9 | 1.7 | 0.00 | 0.00 | 0.00 | 34 | 1011.1 |
| 20260906211250 | 100 | 341 | 1.7 | 1.7 | 0.00 | 0.00 | 0.00 | 34 | 1011.1 |
| 20260906210742 | 101 | 14 | 2.6 | 3.5 | 0.00 | 0.00 | 0.00 | 33 | 1011.2 |
| 20260906210241 | 100 | 240 | 0.0 | 0.9 | 0.00 | 0.00 | 0.00 | 34 | 1011.3 |
| 20260906205740 | 100 | 53 | 1.7 | 3.5 | 0.00 | 0.00 | 0.00 | 34 | 1011.2 |
| 20260906205230 | 100 | 21 | 0.9 | 1.7 | 0.00 | 0.00 | 0.00 | 35 | 1011.4 |
| 20260906204722 | 100 | 20 | 1.7 | 2.6 | 0.00 | 0.00 | 0.00 | 34 | 1011.5 |
| 20260906204209 | 101 | 188 | 2.6 | 3.5 | 0.00 | 0.00 | 0.00 | 33 | 1011.7 |
| 20260906203640 | 101 | 20 | 0.9 | 0.9 | 0.00 | 0.00 | 0.00 | 33 | 1011.7 |
| 20260906203137 | 101 | 34 | 0.9 | 1.7 | 0.00 | 0.00 | 0.00 | 33 | 1011.8 |
| 20260906202630 | 100 | 258 | 1.7 | 1.7 | 0.00 | 0.00 | 0.00 | 33 | 1011.9 |
| 20260906202130 | 100 | 17 | 0.0 | 0.9 | 0.00 | 0.00 | 0.00 | 35 | 1011.9 |
| 20260906201630 | 100 | 280 | 0.0 | 0.9 | 0.00 | 0.00 | 0.00 | 35 | 1012.0 |
| 20260906201100 | 99 | 298 | 1.7 | 1.7 | 0.00 | 0.00 | 0.00 | 34 | 1012.0 |
| 20260906200540 | 99 | 263 | 0.9 | 1.7 | 0.00 | 0.00 | 0.00 | 34 | 1012.0 |
| 20260906200010 | 100 | 324 | 2.6 | 3.5 | 0.00 | 0.00 | 0.00 | 34 | 1012.2 |
| 20260906195508 | 100 | 185 | 1.7 | 1.7 | 0.00 | 0.00 | 0.00 | 33 | 1012.0 |
| 20260906194944 | 99 | 19 | 0.9 | 1.7 | 0.00 | 0.00 | 0.00 | 34 | 1012.2 |
| 20260906194440 | 99 | 356 | 0.9 | 1.7 | 0.00 | 0.00 | 0.00 | 35 | 1012.2 |
| 20260906193920 | 99 | 227 | 1.7 | 2.6 | 0.00 | 0.00 | 0.00 | 34 | 1012.2 |
| 20260906193419 | 99 | 233 | 1.7 | 2.6 | 0.00 | 0.00 | 0.00 | 34 | 1012.2 |
| 20260906192856 | 99 | 49 | 1.7 | 3.5 | 0.00 | 0.00 | 0.00 | 35 | 1012.5 |
| 20260906192340 | 98 | 329 | 1.7 | 1.7 | 0.00 | 0.00 | 0.00 | 34 | 1012.5 |
| 20260906191758 | 98 | 358 | 0.0 | 0.9 | 0.00 | 0.00 | 0.00 | 37 | 1012.7 |
| 20260906191240 | 98 | 239 | 2.6 | 2.6 | 0.00 | 0.00 | 0.00 | 36 | 1012.6 |
| 20260906190730 | 97 | 350 | 0.9 | 1.7 | 0.00 | 0.00 | 0.00 | 38 | 1012.6 |
| 20260906190140 | 97 | 338 | 1.7 | 2.6 | 0.00 | 0.00 | 0.00 | 37 | 1012.8 |
| 20260906185540 | 97 | 237 | 3.5 | 4.3 | 0.00 | 0.00 | 0.00 | 37 | 1012.9 |
| 20260906185036 | 97 | 353 | 0.9 | 1.7 | 0.00 | 0.00 | 0.00 | 38 | 1012.8 |
| 20260906184500 | 98 | 218 | 0.9 | 1.7 | 0.00 | 0.00 | 0.00 | 37 | 1012.9 |
| 20260906183940 | 98 | 169 | 3.5 | 4.3 | 0.00 | 0.00 | 0.00 | 37 | 1013.1 |
| 20260906183430 | 98 | 130 | 1.7 | 2.6 | 0.00 | 0.00 | 0.00 | 37 | 1012.9 |
| 20260906182840 | 98 | 31 | 1.7 | 1.7 | 0.00 | 0.00 | 0.00 | 38 | 1012.8 |
| 20260906182242 | 98 | 350 | 0.9 | 1.7 | 0.00 | 0.00 | 0.00 | 37 | 1013.0 |
| 20260906181740 | 97 | 182 | 2.6 | 3.5 | 0.00 | 0.00 | 0.00 | 36 | 1013.2 |
| 20260906181200 | 97 | 103 | 0.9 | 1.7 | 0.00 | 0.00 | 0.00 | 38 | 1013.2 |
| 20260906180640 | 97 | 223 | 2.6 | 2.6 | 0.00 | 0.00 | 0.00 | 37 | 1013.5 |
| 20260906180124 | 96 | 156 | 1.7 | 3.5 | 0.00 | 0.00 | 0.00 | 37 | 1013.6 |
| 20260906175605 | 96 | 190 | 1.7 | 2.6 | 0.00 | 0.00 | 0.00 | 37 | 1013.6 |
| 20260906175100 | 96 | 358 | 0.0 | 0.9 | 0.00 | 0.00 | 0.00 | 40 | 1013.7 |
| 20260906174540 | 96 | 243 | 3.5 | 5.2 | 0.00 | 0.00 | 0.00 | 39 | 1013.7 |
| 20260906174039 | 96 | 149 | 1.7 | 2.6 | 0.00 | 0.00 | 0.00 | 39 | 1013.9 |
| 20260906173530 | 95 | 311 | 1.7 | 1.7 | 0.00 | 0.00 | 0.00 | 39 | 1014.1 |
| 20260906173032 | 95 | 329 | 0.9 | 0.9 | 0.00 | 0.00 | 0.00 | 40 | 1014.0 |
| 20260906172500 | 94 | 261 | 2.6 | 2.6 | 0.00 | 0.00 | 0.00 | 40 | 1014.0 |
| 20260906171940 | 94 | 169 | 1.7 | 1.7 | 0.00 | 0.00 | 0.00 | 41 | 1014.0 |
| 20260906171420 | 94 | 0 | 0.9 | 1.7 | 0.00 | 0.00 | 0.00 | 43 | 1014.2 |
| 20260906170910 | 94 | 160 | 3.5 | 4.3 | 0.00 | 0.00 | 0.00 | 41 | 1014.2 |
| 20260906170344 | 94 | 11 | 0.0 | 0.9 | 0.00 | 0.00 | 0.00 | 43 | 1014.3 |
| 20260906165840 | 94 | 208 | 1.7 | 2.6 | 0.00 | 0.00 | 0.00 | 42 | 1014.4 |
| 20260906165330 | 93 | 20 | 0.0 | 0.9 | 0.00 | 0.00 | 0.00 | 42 | 1014.4 |
| 20260906164817 | 93 | 210 | 2.6 | 2.6 | 0.00 | 0.00 | 0.00 | 42 | 1014.4 |
| 20260906164302 | 92 | 5 | 0.9 | 1.7 | 0.00 | 0.00 | 0.00 | 43 | 1014.4 |
| 20260906163749 | 92 | 22 | 0.9 | 0.9 | 0.00 | 0.00 | 0.00 | 43 | 1014.4 |
| 20260906163240 | 92 | 88 | 0.9 | 1.7 | 0.00 | 0.00 | 0.00 | 45 | 1014.2 |
| 20260906162738 | 92 | 219 | 1.7 | 2.6 | 0.00 | 0.00 | 0.00 | 44 | 1014.2 |
| 20260906162225 | 92 | 256 | 2.6 | 4.3 | 0.00 | 0.00 | 0.00 | 43 | 1014.2 |
| 20260906161640 | 92 | 21 | 0.0 | 0.9 | 0.00 | 0.00 | 0.00 | 42 | 1014.2 |
| 20260906161146 | 91 | 285 | 0.9 | 1.7 | 0.00 | 0.00 | 0.00 | 43 | 1014.1 |
| 20260906160631 | 91 | 93 | 0.0 | 0.9 | 0.00 | 0.00 | 0.00 | 44 | 1014.0 |
| 20260906160040 | 90 | 155 | 1.7 | 2.6 | 0.00 | 0.00 | 0.00 | 43 | 1014.2 |
| 20260906155530 | 90 | 25 | 0.0 | 0.9 | 0.00 | 0.00 | 0.00 | 45 | 1013.9 |
| 20260906154940 | 90 | 177 | 1.7 | 2.6 | 0.00 | 0.00 | 0.00 | 44 | 1014.2 |
| 20260906154343 | 90 | 20 | 0.9 | 1.7 | 0.00 | 0.00 | 0.00 | 47 | 1014.0 |
| 20260906153855 | 89 | 84 | 0.9 | 1.7 | 0.00 | 0.00 | 0.00 | 47 | 1014.0 |
| 20260906153325 | 89 | 359 | 0.0 | 0.9 | 0.00 | 0.00 | 0.00 | 48 | 1014.0 |
| 20260906152820 | 88 | 8 | 0.9 | 1.7 | 0.00 | 0.00 | 0.00 | 48 | 1013.9 |
| 20260906152240 | 87 | 4 | 0.0 | 0.0 | 0.00 | 0.00 | 0.00 | 50 | 1013.9 |
| 20260906151750 | 87 | 69 | 0.0 | 0.0 | 0.00 | 0.00 | 0.00 | 52 | 1014.0 |
| 20260906151217 | 86 | 46 | 0.0 | 0.0 | 0.00 | 0.00 | 0.00 | 51 | 1014.3 |
| 20260906150704 | 86 | 39 | 0.0 | 0.0 | 0.00 | 0.00 | 0.00 | 53 | 1014.0 |
| 20260906150145 | 86 | 5 | 0.0 | 0.0 | 0.00 | 0.00 | 0.00 | 56 | 1014.0 |
| 20260906145640 | 85 | 33 | 0.0 | 0.0 | 0.00 | 0.00 | 0.00 | 57 | 1014.0 |
| 20260906145119 | 85 | 46 | 0.0 | 0.0 | 0.00 | 0.00 | 0.00 | 55 | 1014.0 |
| 20260906144600 | 84 | 41 | 0.0 | 0.0 | 0.00 | 0.00 | 0.00 | 56 | 1014.1 |
| 20260906144054 | 84 | 22 | 0.0 | 0.0 | 0.00 | 0.00 | 0.00 | 62 | 1014.0 |
| 20260906143607 | 83 | 47 | 0.0 | 0.9 | 0.00 | 0.00 | 0.00 | 62 | 1014.1 |
| 20260906143050 | 83 | 19 | 0.0 | 0.9 | 0.00 | 0.00 | 0.00 | 62 | 1014.2 |
| 20260906142544 | 83 | 37 | 0.0 | 0.0 | 0.00 | 0.00 | 0.00 | 64 | 1014.3 |
| 20260906142040 | 82 | 32 | 0.0 | 0.0 | 0.00 | 0.00 | 0.00 | 68 | 1014.3 |
| 20260906141538 | 82 | 36 | 0.0 | 0.9 | 0.00 | 0.00 | 0.00 | 69 | 1014.3 |
| 20260906141035 | 82 | 70 | 0.9 | 1.7 | 0.00 | 0.00 | 0.00 | 69 | 1014.3 |
| 20260906140532 | 81 | 43 | 0.0 | 0.0 | 0.00 | 0.00 | 0.00 | 71 | 1014.0 |
| 20260906140025 | 81 | 22 | 0.0 | 0.0 | 0.00 | 0.00 | 0.00 | 73 | 1014.2 |
| 20260906135441 | 80 | 27 | 0.0 | 0.0 | 0.00 | 0.00 | 0.00 | 76 | 1014.1 |
| 20260906134925 | 80 | 41 | 0.0 | 0.0 | 0.00 | 0.00 | 0.00 | 78 | 1014.2 |
| 20260906134347 | 80 | 42 | 0.0 | 0.0 | 0.00 | 0.00 | 0.00 | 81 | 1014.2 |
| 20260906133840 | 79 | 43 | 0.0 | 0.0 | 0.00 | 0.00 | 0.00 | 85 | 1014.0 |
| 20260906133248 | 79 | 44 | 0.0 | 0.0 | 0.00 | 0.00 | 0.00 | 86 | 1014.1 |
| 20260906132755 | 79 | 44 | 0.0 | 0.0 | 0.00 | 0.00 | 0.00 | 86 | 1014.0 |
| 20260906132230 | 78 | 44 | 0.0 | 0.0 | 0.00 | 0.00 | 0.00 | 87 | 1014.1 |
| 20260906131640 | 78 | 45 | 0.0 | 0.0 | 0.00 | 0.00 | 0.00 | 88 | 1014.2 |
| 20260906131131 | 78 | 45 | 0.0 | 0.0 | 0.00 | 0.00 | 0.00 | 89 | 1014.2 |
| 20260906130600 | 78 | 64 | 0.0 | 0.0 | 0.00 | 0.00 | 0.00 | 91 | 1014.1 |
| 20260906130040 | 78 | 64 | 0.0 | 0.0 | 0.00 | 0.00 | 0.00 | 92 | 1014.1 |
| 20260906125530 | 78 | 65 | 0.0 | 0.0 | 0.00 | 0.00 | 0.00 | 92 | 1014.2 |
| 20260906124946 | 78 | 65 | 0.0 | 0.0 | 0.00 | 0.00 | 0.00 | 93 | 1014.0 |
| 20260906124441 | 77 | 65 | 0.0 | 0.0 | 0.00 | 0.00 | 0.00 | 94 | 1014.0 |
| 20260906123936 | 77 | 65 | 0.0 | 0.0 | 0.00 | 0.00 | 0.00 | 94 | 1013.7 |
| 20260906123425 | 77 | 65 | 0.0 | 0.0 | 0.00 | 0.00 | 0.00 | 94 | 1013.9 |
| 20260906122844 | 77 | 65 | 0.0 | 0.0 | 0.00 | 0.00 | 0.00 | 94 | 1013.9 |
| 20260906122340 | 77 | 65 | 0.0 | 0.0 | 0.00 | 0.00 | 0.00 | 93 | 1013.7 |
| 20260906121817 | 77 | 65 | 0.0 | 0.0 | 0.00 | 0.00 | 0.00 | 93 | 1013.7 |
| 20260906121310 | 77 | 65 | 0.0 | 0.0 | 0.00 | 0.00 | 0.00 | 92 | 1013.7 |
| 20260906120755 | 78 | 65 | 0.0 | 0.0 | 0.00 | 0.00 | 0.00 | 92 | 1013.6 |
| 20260906120220 | 78 | 65 | 0.0 | 0.0 | 0.00 | 0.00 | 0.00 | 92 | 1013.6 |
| 20260906115713 | 78 | 65 | 0.0 | 0.0 | 0.00 | 0.00 | 0.00 | 92 | 1013.6 |
| 20260906115150 | 78 | 65 | 0.0 | 0.0 | 0.00 | 0.00 | 0.00 | 92 | 1013.5 |
| 20260906114640 | 78 | 65 | 0.0 | 0.0 | 0.00 | 0.00 | 0.00 | 92 | 1013.5 |
| 20260906114135 | 78 | 65 | 0.0 | 0.0 | 0.00 | 0.00 | 0.00 | 92 | 1013.4 |
| 20260906113617 | 78 | 65 | 0.0 | 0.0 | 0.00 | 0.00 | 0.00 | 91 | 1013.5 |
| 20260906113049 | 78 | 65 | 0.0 | 0.0 | 0.00 | 0.00 | 0.00 | 90 | 1013.4 |
| 20260906112555 | 78 | 65 | 0.0 | 0.0 | 0.00 | 0.00 | 0.00 | 90 | 1013.4 |
| 20260906112035 | 78 | 65 | 0.0 | 0.0 | 0.00 | 0.00 | 0.00 | 89 | 1013.2 |
| 20260906111520 | 79 | 65 | 0.0 | 0.0 | 0.00 | 0.00 | 0.00 | 88 | 1013.3 |
| 20260906110940 | 79 | 65 | 0.0 | 0.0 | 0.00 | 0.00 | 0.00 | 89 | 1013.3 |
| 20260906110430 | 79 | 49 | 0.0 | 0.0 | 0.00 | 0.00 | 0.00 | 89 | 1013.2 |
| 20260906105843 | 78 | 50 | 0.0 | 0.0 | 0.00 | 0.00 | 0.00 | 89 | 1013.1 |
| 20260906105340 | 78 | 49 | 0.0 | 0.0 | 0.00 | 0.00 | 0.00 | 91 | 1013.1 |
| 20260906104833 | 78 | 65 | 0.0 | 0.0 | 0.00 | 0.00 | 0.00 | 92 | 1012.9 |
| 20260906104345 | 78 | 66 | 0.0 | 0.0 | 0.00 | 0.00 | 0.00 | 92 | 1012.9 |
| 20260906103740 | 78 | 65 | 0.0 | 0.0 | 0.00 | 0.00 | 0.00 | 91 | 1012.9 |
| 20260906103230 | 78 | 65 | 0.0 | 0.0 | 0.00 | 0.00 | 0.00 | 91 | 1012.9 |
| 20260906102710 | 78 | 65 | 0.0 | 0.0 | 0.00 | 0.00 | 0.00 | 90 | 1013.0 |
| 20260906102140 | 78 | 65 | 0.0 | 0.0 | 0.00 | 0.00 | 0.00 | 90 | 1012.7 |
| 20260906101615 | 79 | 65 | 0.0 | 0.0 | 0.00 | 0.00 | 0.00 | 89 | 1012.8 |
| 20260906101049 | 79 | 65 | 0.0 | 0.0 | 0.00 | 0.00 | 0.00 | 88 | 1012.9 |
| 20260906100540 | 79 | 65 | 0.0 | 0.0 | 0.00 | 0.00 | 0.00 | 88 | 1012.9 |
| 20260906100032 | 79 | 65 | 0.0 | 0.0 | 0.00 | 0.00 | 0.00 | 88 | 1012.9 |
| 20260906095520 | 79 | 65 | 0.0 | 0.0 | 0.00 | 0.00 | 0.00 | 88 | 1012.8 |
| 20260906095001 | 79 | 65 | 0.0 | 0.0 | 0.00 | 0.00 | 0.00 | 88 | 1012.8 |
| 20260906094440 | 80 | 65 | 0.0 | 0.0 | 0.00 | 0.00 | 0.00 | 87 | 1012.6 |
| 20260906093850 | 80 | 65 | 0.0 | 0.0 | 0.00 | 0.00 | 0.00 | 86 | 1012.7 |
| 20260906093342 | 80 | 65 | 0.0 | 0.0 | 0.00 | 0.00 | 0.00 | 85 | 1012.7 |
| 20260906092855 | 80 | 65 | 0.0 | 0.0 | 0.00 | 0.00 | 0.00 | 85 | 1012.6 |
| 20260906092333 | 80 | 65 | 0.0 | 0.0 | 0.00 | 0.00 | 0.00 | 84 | 1012.3 |
| 20260906091827 | 80 | 65 | 0.0 | 0.0 | 0.00 | 0.00 | 0.00 | 83 | 1012.6 |
| 20260906091320 | 80 | 65 | 0.0 | 0.0 | 0.00 | 0.00 | 0.00 | 83 | 1012.3 |
| 20260906090825 | 80 | 66 | 0.0 | 0.0 | 0.00 | 0.00 | 0.00 | 83 | 1012.4 |
| 20260906090314 | 80 | 64 | 0.0 | 0.0 | 0.00 | 0.00 | 0.00 | 81 | 1012.5 |
| 20260906085751 | 80 | 64 | 0.0 | 0.0 | 0.00 | 0.00 | 0.00 | 81 | 1012.6 |
| 20260906085248 | 81 | 66 | 0.0 | 0.0 | 0.00 | 0.00 | 0.00 | 81 | 1012.5 |
| 20260906084747 | 81 | 354 | 0.0 | 0.9 | 0.00 | 0.00 | 0.00 | 80 | 1012.3 |
| 20260906084240 | 81 | 45 | 0.0 | 0.0 | 0.00 | 0.00 | 0.00 | 80 | 1012.4 |
| 20260906083730 | 81 | 45 | 0.0 | 0.0 | 0.00 | 0.00 | 0.00 | 80 | 1012.2 |
| 20260906083142 | 81 | 54 | 0.0 | 0.0 | 0.00 | 0.00 | 0.00 | 79 | 1012.3 |
| 20260906082640 | 81 | 42 | 0.0 | 0.0 | 0.00 | 0.00 | 0.00 | 79 | 1012.2 |
| 20260906082110 | 81 | 42 | 0.0 | 0.0 | 0.00 | 0.00 | 0.00 | 78 | 1012.4 |
| 20260906081606 | 81 | 55 | 0.0 | 0.0 | 0.00 | 0.00 | 0.00 | 78 | 1012.2 |
| 20260906081103 | 81 | 42 | 0.0 | 0.9 | 0.00 | 0.00 | 0.00 | 78 | 1012.2 |
| 20260906080600 | 81 | 40 | 0.0 | 0.0 | 0.00 | 0.00 | 0.00 | 77 | 1012.1 |
| 20260906080100 | 81 | 40 | 0.0 | 0.0 | 0.00 | 0.00 | 0.00 | 77 | 1012.4 |
| 20260906075540 | 81 | 3 | 0.0 | 0.0 | 0.00 | 0.00 | 0.00 | 77 | 1012.1 |
| 20260906075010 | 81 | 20 | 0.0 | 0.0 | 0.00 | 0.00 | 0.00 | 76 | 1012.2 |
| 20260906074510 | 81 | 49 | 0.0 | 0.0 | 0.00 | 0.00 | 0.00 | 76 | 1012.1 |
| 20260906073941 | 81 | 58 | 0.0 | 0.0 | 0.00 | 0.00 | 0.00 | 76 | 1012.1 |
| 20260906073447 | 82 | 58 | 0.0 | 0.0 | 0.00 | 0.00 | 0.00 | 75 | 1011.9 |
| 20260906072928 | 82 | 271 | 0.9 | 1.7 | 0.00 | 0.00 | 0.00 | 75 | 1012.1 |
| 20260906072417 | 82 | 58 | 0.0 | 0.0 | 0.00 | 0.00 | 0.00 | 75 | 1012.2 |
| 20260906071909 | 82 | 42 | 0.0 | 0.0 | 0.00 | 0.00 | 0.00 | 74 | 1012.0 |
| 20260906071345 | 82 | 144 | 0.9 | 1.7 | 0.00 | 0.00 | 0.00 | 74 | 1012.4 |
| 20260906070840 | 82 | 10 | 0.0 | 0.9 | 0.00 | 0.00 | 0.00 | 74 | 1012.4 |
| 20260906070321 | 82 | 31 | 0.0 | 0.0 | 0.00 | 0.00 | 0.00 | 73 | 1012.5 |
| 20260906065740 | 82 | 48 | 0.0 | 0.0 | 0.00 | 0.00 | 0.00 | 73 | 1012.7 |
| 20260906065226 | 82 | 67 | 0.0 | 0.9 | 0.00 | 0.00 | 0.00 | 72 | 1012.6 |
| 20260906064640 | 82 | 0 | 0.0 | 0.0 | 0.00 | 0.00 | 0.00 | 72 | 1012.6 |
| 20260906064046 | 82 | 192 | 0.9 | 1.7 | 0.00 | 0.00 | 0.00 | 72 | 1012.7 |
| 20260906063541 | 82 | 303 | 0.0 | 0.0 | 0.00 | 0.00 | 0.00 | 72 | 1012.6 |
| 20260906063033 | 82 | 62 | 0.0 | 0.0 | 0.00 | 0.00 | 0.00 | 72 | 1012.6 |
| 20260906062533 | 82 | 251 | 1.7 | 2.6 | 0.00 | 0.00 | 0.00 | 71 | 1012.6 |
| 20260906062005 | 83 | 167 | 1.7 | 2.6 | 0.00 | 0.00 | 0.00 | 71 | 1012.5 |
| 20260906061440 | 83 | 236 | 1.7 | 1.7 | 0.00 | 0.00 | 0.00 | 71 | 1012.7 |
| 20260906060913 | 83 | 43 | 0.0 | 0.0 | 0.00 | 0.00 | 0.00 | 71 | 1012.5 |
| 20260906060359 | 83 | 83 | 0.0 | 0.0 | 0.00 | 0.00 | 0.00 | 71 | 1012.3 |
| 20260906055840 | 83 | 61 | 0.0 | 0.0 | 0.00 | 0.00 | 0.00 | 71 | 1012.3 |
| 20260906055240 | 83 | 63 | 0.0 | 0.0 | 0.00 | 0.00 | 0.00 | 71 | 1012.5 |
| 20260906054651 | 83 | 69 | 0.9 | 1.7 | 0.00 | 0.00 | 0.00 | 70 | 1012.8 |
| 20260906054140 | 84 | 47 | 0.0 | 0.9 | 0.00 | 0.00 | 0.00 | 70 | 1012.6 |
| 20260906053601 | 84 | 7 | 0.0 | 0.9 | 0.00 | 0.00 | 0.00 | 70 | 1012.7 |
| 20260906053040 | 84 | 54 | 0.0 | 0.0 | 0.00 | 0.00 | 0.00 | 70 | 1012.7 |
| 20260906052545 | 84 | 66 | 0.0 | 0.9 | 0.00 | 0.00 | 0.00 | 71 | 1012.5 |
| 20260906052002 | 84 | 228 | 0.0 | 0.0 | 0.00 | 0.00 | 0.00 | 71 | 1012.5 |
| 20260906051500 | 84 | 228 | 0.0 | 0.0 | 0.00 | 0.00 | 0.00 | 70 | 1012.5 |
| 20260906050940 | 84 | 27 | 0.0 | 0.0 | 0.00 | 0.00 | 0.00 | 69 | 1012.5 |
| 20260906050445 | 84 | 41 | 0.0 | 0.0 | 0.00 | 0.00 | 0.00 | 69 | 1012.4 |
| 20260906045840 | 84 | 15 | 0.0 | 0.0 | 0.00 | 0.00 | 0.00 | 69 | 1012.6 |
| 20260906045244 | 84 | 39 | 0.0 | 0.0 | 0.00 | 0.00 | 0.00 | 68 | 1012.6 |
| 20260906044756 | 84 | 43 | 0.0 | 0.0 | 0.00 | 0.00 | 0.00 | 67 | 1012.5 |
| 20260906044217 | 84 | 32 | 0.0 | 0.0 | 0.00 | 0.00 | 0.00 | 67 | 1012.5 |
| 20260906043640 | 85 | 79 | 0.0 | 0.9 | 0.00 | 0.00 | 0.00 | 67 | 1012.6 |
| 20260906043129 | 85 | 350 | 0.0 | 0.9 | 0.00 | 0.00 | 0.00 | 66 | 1012.6 |
| 20260906042612 | 85 | 17 | 0.0 | 0.0 | 0.00 | 0.00 | 0.00 | 66 | 1012.5 |
| 20260906042100 | 85 | 135 | 0.9 | 0.9 | 0.00 | 0.00 | 0.00 | 66 | 1012.7 |
| 20260906041540 | 85 | 47 | 0.0 | 0.0 | 0.00 | 0.00 | 0.00 | 65 | 1012.4 |
| 20260906041029 | 85 | 115 | 0.0 | 0.9 | 0.00 | 0.00 | 0.00 | 65 | 1012.4 |
| 20260906040449 | 85 | 52 | 0.0 | 0.9 | 0.00 | 0.00 | 0.00 | 64 | 1012.6 |
| 20260906035940 | 85 | 128 | 1.7 | 2.6 | 0.00 | 0.00 | 0.00 | 64 | 1012.3 |
| 20260906035350 | 85 | 306 | 0.0 | 0.9 | 0.00 | 0.00 | 0.00 | 63 | 1012.5 |
| 20260906034840 | 85 | 85 | 0.0 | 0.9 | 0.00 | 0.00 | 0.00 | 63 | 1012.6 |
| 20260906034335 | 86 | 142 | 0.9 | 1.7 | 0.00 | 0.00 | 0.00 | 63 | 1012.6 |
| 20260906033755 | 86 | 27 | 0.0 | 0.9 | 0.00 | 0.00 | 0.00 | 62 | 1012.5 |
| 20260906033230 | 86 | 207 | 0.0 | 0.9 | 0.00 | 0.00 | 0.00 | 62 | 1012.5 |
| 20260906032720 | 86 | 168 | 0.0 | 1.7 | 0.00 | 0.00 | 0.00 | 62 | 1012.4 |
| 20260906032210 | 86 | 139 | 1.7 | 1.7 | 0.00 | 0.00 | 0.00 | 62 | 1012.7 |
| 20260906031648 | 86 | 117 | 0.9 | 0.9 | 0.00 | 0.00 | 0.00 | 61 | 1012.5 |
| 20260906031140 | 86 | 59 | 0.0 | 0.0 | 0.00 | 0.00 | 0.00 | 61 | 1012.5 |
| 20260906030632 | 86 | 116 | 0.0 | 0.9 | 0.00 | 0.00 | 0.00 | 61 | 1012.6 |
| 20260906030110 | 86 | 247 | 0.9 | 1.7 | 0.00 | 0.00 | 0.00 | 60 | 1012.4 |
| 20260906025545 | 87 | 158 | 1.7 | 2.6 | 0.00 | 0.00 | 0.00 | 60 | 1012.5 |
| 20260906025040 | 87 | 81 | 0.9 | 1.7 | 0.00 | 0.00 | 0.00 | 59 | 1012.7 |
| 20260906024540 | 87 | 246 | 0.9 | 1.7 | 0.00 | 0.00 | 0.00 | 59 | 1012.6 |
| 20260906024036 | 87 | 174 | 0.9 | 1.7 | 0.00 | 0.00 | 0.00 | 58 | 1012.4 |
| 20260906023520 | 87 | 142 | 0.9 | 1.7 | 0.00 | 0.00 | 0.00 | 58 | 1012.3 |
| 20260906023018 | 87 | 152 | 1.7 | 2.6 | 0.00 | 0.00 | 0.00 | 57 | 1012.1 |
| 20260906022454 | 87 | 172 | 0.0 | 1.7 | 0.00 | 0.00 | 0.00 | 57 | 1012.1 |
| 20260906022008 | 88 | 175 | 1.7 | 4.3 | 0.00 | 0.00 | 0.00 | 56 | 1012.0 |
| 20260906021441 | 88 | 140 | 1.7 | 1.7 | 0.00 | 0.00 | 0.00 | 55 | 1011.9 |
| 20260906020940 | 88 | 157 | 1.7 | 2.6 | 0.00 | 0.00 | 0.00 | 55 | 1011.8 |
| 20260906020415 | 88 | 304 | 0.9 | 0.9 | 0.00 | 0.00 | 0.00 | 54 | 1011.8 |
| 20260906015850 | 88 | 56 | 0.0 | 0.9 | 0.00 | 0.00 | 0.00 | 54 | 1011.7 |
| 20260906015340 | 88 | 120 | 2.6 | 4.3 | 0.00 | 0.00 | 0.00 | 53 | 1011.8 |
| 20260906014818 | 89 | 47 | 1.7 | 1.7 | 0.00 | 0.00 | 0.00 | 53 | 1011.6 |
| 20260906014310 | 89 | 105 | 1.7 | 2.6 | 0.00 | 0.00 | 0.00 | 53 | 1011.5 |
| 20260906013755 | 90 | 104 | 1.7 | 2.6 | 0.00 | 0.00 | 0.00 | 52 | 1011.4 |
| 20260906013230 | 90 | 41 | 0.0 | 0.9 | 0.00 | 0.00 | 0.00 | 51 | 1011.4 |
| 20260906012720 | 90 | 140 | 0.0 | 1.7 | 0.00 | 0.00 | 0.00 | 51 | 1011.4 |
| 20260906012210 | 90 | 153 | 1.7 | 2.6 | 0.00 | 0.00 | 0.00 | 51 | 1011.4 |
| 20260906011641 | 91 | 166 | 0.9 | 1.7 | 0.00 | 0.00 | 0.00 | 50 | 1011.4 |
| 20260906011120 | 92 | 29 | 0.9 | 0.9 | 0.00 | 0.00 | 0.00 | 49 | 1011.1 |
| 20260906010617 | 92 | 16 | 0.9 | 0.9 | 0.00 | 0.00 | 0.00 | 48 | 1011.0 |
| 20260906010040 | 94 | 30 | 0.9 | 2.6 | 0.00 | 0.00 | 0.00 | 45 | 1011.1 |
| 20260906005538 | 94 | 14 | 0.0 | 0.0 | 0.00 | 0.00 | 0.00 | 41 | 1010.7 |
| 20260906005020 | 94 | 16 | 0.0 | 0.0 | 0.00 | 0.00 | 0.00 | 41 | 1010.6 |
| 20260906004513 | 94 | 9 | 0.0 | 0.0 | 0.00 | 0.00 | 0.00 | 40 | 1010.6 |
| 20260906003940 | 95 | 23 | 0.0 | 0.0 | 0.00 | 0.00 | 0.00 | 39 | 1010.5 |
| 20260906003430 | 95 | 335 | 0.0 | 0.0 | 0.00 | 0.00 | 0.00 | 39 | 1010.8 |
| 20260906002903 | 95 | 19 | 0.0 | 0.0 | 0.00 | 0.00 | 0.00 | 39 | 1010.6 |
| 20260906002355 | 95 | 76 | 0.9 | 0.9 | 0.00 | 0.00 | 0.00 | 39 | 1010.7 |
| 20260906001818 | 95 | 188 | 0.9 | 1.7 | 0.00 | 0.00 | 0.00 | 39 | 1010.6 |
| 20260906001307 | 96 | 6 | 0.0 | 0.9 | 0.00 | 0.00 | 0.00 | 39 | 1010.6 |
| 20260906000754 | 96 | 33 | 0.0 | 0.0 | 0.00 | 0.00 | 0.00 | 39 | 1010.7 |
| 20260906000241 | 96 | 34 | 0.0 | 0.9 | 0.00 | 0.00 | 0.00 | 38 | 1010.4 |
| 20260905235720 | 96 | 151 | 1.7 | 1.7 | 0.00 | 0.00 | 0.00 | 38 | 1010.6 |
| 20260905235217 | 97 | 5 | 0.0 | 0.9 | 0.00 | 0.00 | 0.00 | 38 | 1010.5 |
| 20260905234650 | 97 | 327 | 0.0 | 0.9 | 0.00 | 0.00 | 0.00 | 37 | 1010.4 |
| 20260905234140 | 97 | 178 | 2.6 | 2.6 | 0.00 | 0.00 | 0.00 | 37 | 1010.6 |
| 20260905233618 | 98 | 345 | 0.0 | 0.0 | 0.00 | 0.00 | 0.00 | 37 | 1010.3 |
| 20260905233130 | 98 | 16 | 0.0 | 0.0 | 0.00 | 0.00 | 0.00 | 35 | 1010.4 |
| 20260905232540 | 98 | 275 | 0.9 | 0.9 | 0.00 | 0.00 | 0.00 | 35 | 1010.4 |
| 20260905232035 | 98 | 9 | 0.0 | 0.0 | 0.00 | 0.00 | 0.00 | 39 | 1010.5 |
| 20260905231522 | 99 | 31 | 0.0 | 0.0 | 0.00 | 0.00 | 0.00 | 37 | 1010.2 |
| 20260905231021 | 100 | 353 | 0.0 | 0.0 | 0.00 | 0.00 | 0.00 | 35 | 1010.5 |
| 20260905230443 | 100 | 63 | 0.0 | 0.9 | 0.00 | 0.00 | 0.00 | 34 | 1010.3 |
| 20260905225940 | 100 | 22 | 0.0 | 0.9 | 0.00 | 0.00 | 0.00 | 34 | 1010.4 |